createdAt,value
2023-05-22T00:02:48.624Z,81.56
2023-05-22T00:05:58.952Z,81.23
2023-05-22T00:09:01.439Z,80.53
2023-05-22T00:12:04.211Z,80.23
2023-05-22T00:15:07.319Z,80.17
2023-05-22T00:18:10.104Z,78.89
2023-05-22T00:21:12.751Z,78.28
2023-05-22T00:24:15.826Z,77.25
2023-05-22T00:27:18.338Z,77.60
2023-05-22T00:30:24.042Z,77.95
2023-05-22T00:33:26.997Z,78.06
2023-05-22T00:36:29.725Z,77.54
2023-05-22T00:39:32.064Z,77.21
2023-05-22T00:42:34.749Z,77.69
2023-05-22T00:45:37.117Z,77.08
2023-05-22T00:48:40.189Z,76.81
2023-05-22T00:51:42.767Z,76.76
2023-05-22T00:54:46.006Z,77.03
2023-05-22T00:57:48.696Z,77.93
2023-05-22T01:00:51.574Z,80.40
2023-05-22T01:03:55.820Z,80.14
2023-05-22T01:07:01.833Z,80.08
2023-05-22T01:10:06.129Z,80.57
2023-05-22T01:13:40.135Z,82.41
2023-05-22T01:17:22.877Z,82.69
2023-05-22T01:20:31.725Z,83.51
2023-05-22T01:24:01.945Z,83.42
2023-05-22T01:27:37.386Z,84.47
2023-05-22T01:31:00.937Z,85.12
2023-05-22T01:34:05.133Z,84.82
2023-05-22T01:37:12.253Z,85.26
2023-05-22T01:40:15.474Z,85.81
2023-05-22T01:43:18.025Z,85.47
2023-05-22T01:46:24.038Z,85.78
2023-05-22T01:49:28.397Z,86.38
2023-05-22T01:52:46.691Z,87.39
2023-05-22T01:56:01.035Z,87.72
2023-05-22T01:59:32.033Z,88.03
2023-05-22T02:02:39.470Z,87.96
2023-05-22T02:05:46.287Z,88.08
2023-05-22T02:08:50.576Z,88.37
2023-05-22T02:11:53.688Z,88.36
2023-05-22T02:14:56.552Z,88.64
2023-05-22T02:18:03.377Z,89.37
2023-05-22T02:21:08.717Z,89.13
2023-05-22T02:24:12.096Z,89.79
2023-05-22T02:27:15.078Z,89.68
2023-05-22T02:30:17.892Z,89.60
2023-05-22T02:33:20.837Z,89.85
2023-05-22T02:36:26.325Z,90.27
2023-05-22T02:39:29.745Z,89.89
2023-05-22T02:42:32.447Z,89.99
2023-05-22T02:45:35.197Z,90.10
2023-05-22T02:48:40.774Z,90.00
2023-05-22T02:51:47.613Z,89.94
2023-05-22T02:54:50.475Z,90.39
2023-05-22T02:57:52.988Z,90.62
2023-05-22T03:00:55.785Z,90.97
2023-05-22T03:03:58.436Z,90.64
2023-05-22T03:07:01.892Z,91.45
2023-05-22T03:10:05.140Z,91.43
2023-05-22T03:13:08.864Z,91.43
2023-05-22T03:16:11.709Z,92.58
2023-05-22T03:19:17.073Z,91.85
2023-05-22T03:22:19.707Z,91.33
2023-05-22T03:25:23.128Z,91.50
2023-05-22T03:28:26.919Z,91.43
2023-05-22T03:31:31.596Z,91.66
2023-05-22T03:34:34.436Z,90.62
2023-05-22T03:37:37.579Z,90.67
2023-05-22T03:40:40.762Z,89.99
2023-05-22T03:43:45.179Z,89.85
2023-05-22T03:46:48.362Z,89.54
2023-05-22T03:49:53.596Z,89.13
2023-05-22T03:52:57.505Z,88.38
2023-05-22T03:56:00.422Z,87.88
2023-05-22T03:59:03.090Z,87.44
2023-05-22T04:02:06.035Z,86.93
2023-05-22T04:05:10.295Z,86.21
2023-05-22T04:08:13.123Z,85.42
2023-05-22T04:11:16.210Z,84.56
2023-05-22T04:14:18.791Z,84.03
2023-05-22T04:17:22.148Z,82.41
2023-05-22T04:20:24.812Z,82.41
2023-05-22T04:23:27.530Z,81.44
2023-05-22T04:26:32.153Z,80.94
2023-05-22T04:29:38.264Z,80.64
2023-05-22T04:32:41.020Z,79.47
2023-05-22T04:35:44.375Z,79.26
2023-05-22T04:38:47.734Z,78.54
2023-05-22T04:41:51.798Z,78.01
2023-05-22T04:44:58.346Z,76.82
2023-05-22T04:48:02.948Z,76.05
2023-05-22T04:51:06.806Z,74.78
2023-05-22T04:54:11.678Z,74.41
2023-05-22T04:57:15.142Z,73.78
2023-05-22T05:00:18.922Z,72.79
2023-05-22T05:03:22.860Z,72.59
2023-05-22T05:06:26.277Z,71.91
2023-05-22T05:09:28.859Z,70.98
2023-05-22T05:12:31.748Z,68.76
2023-05-22T05:15:34.288Z,67.87
2023-05-22T05:18:38.330Z,64.80
2023-05-22T05:21:41.083Z,65.68
2023-05-22T05:24:43.825Z,63.21
2023-05-22T05:27:46.680Z,62.32
2023-05-22T05:30:50.137Z,62.79
2023-05-22T05:33:53.089Z,62.59
2023-05-22T05:36:57.414Z,61.88
2023-05-22T05:40:01.017Z,61.12
2023-05-22T05:43:10.106Z,59.87
2023-05-22T05:46:14.989Z,59.58
2023-05-22T05:49:19.798Z,59.26
2023-05-22T05:52:22.551Z,57.41
2023-05-22T05:55:25.605Z,55.97
2023-05-22T05:58:37.965Z,53.68
2023-05-22T06:01:45.969Z,52.01
2023-05-22T06:04:49.304Z,48.83
2023-05-22T06:07:53.051Z,46.85
2023-05-22T06:10:56.146Z,46.09
2023-05-22T06:14:03.336Z,44.70
2023-05-22T06:17:09.232Z,45.63
2023-05-22T06:20:14.314Z,45.16
2023-05-22T06:23:18.048Z,43.52
2023-05-22T06:26:24.541Z,43.45
2023-05-22T06:29:27.524Z,43.02
2023-05-22T06:32:31.543Z,42.16
2023-05-22T06:35:36.812Z,40.59
2023-05-22T06:38:40.931Z,40.59
2023-05-22T06:41:47.864Z,39.65
2023-05-22T06:44:51.973Z,40.24
2023-05-22T06:47:55.660Z,40.12
2023-05-22T06:50:58.403Z,40.42
2023-05-22T06:54:07.427Z,40.18
2023-05-22T06:57:11.300Z,41.06
2023-05-22T07:00:14.851Z,41.44
2023-05-22T07:03:19.985Z,41.39
2023-05-22T07:06:24.774Z,42.56
2023-05-22T07:09:27.385Z,41.56
2023-05-22T07:12:31.345Z,40.58
2023-05-22T07:15:34.404Z,39.64
2023-05-22T07:18:38.442Z,39.73
2023-05-22T07:21:41.705Z,38.44
2023-05-22T07:24:47.599Z,38.34
2023-05-22T07:27:51.092Z,35.84
2023-05-22T07:30:54.319Z,35.85
2023-05-22T07:33:56.876Z,36.12
2023-05-22T07:37:02.654Z,35.19
2023-05-22T07:40:10.002Z,34.79
2023-05-22T07:43:15.425Z,34.80
2023-05-22T07:46:18.113Z,32.82
2023-05-22T07:49:23.470Z,32.37
2023-05-22T07:52:26.072Z,30.79
2023-05-22T07:55:28.855Z,30.04
2023-05-22T07:58:31.586Z,30.75
2023-05-22T08:01:37.552Z,28.70
2023-05-22T08:04:40.824Z,28.30
2023-05-22T08:07:43.367Z,26.17
2023-05-22T08:11:02.566Z,26.52
2023-05-22T08:14:06.598Z,24.88
2023-05-22T08:17:09.576Z,25.59
2023-05-22T08:20:13.286Z,25.23
2023-05-22T08:23:16.182Z,25.66
2023-05-22T08:26:18.640Z,23.79
2023-05-22T08:29:21.456Z,23.18
2023-05-22T08:32:23.953Z,22.21
2023-05-22T08:35:27.063Z,22.17
2023-05-22T08:38:29.713Z,22.56
2023-05-22T08:41:32.631Z,21.74
2023-05-22T08:44:40.771Z,21.75
2023-05-22T08:47:44.655Z,20.22
2023-05-22T08:50:49.770Z,21.61
2023-05-22T08:53:56.606Z,21.03
2023-05-22T08:56:59.307Z,22.35
2023-05-22T09:00:02.225Z,20.36
2023-05-22T09:03:06.888Z,21.67
2023-05-22T09:06:11.212Z,21.59
2023-05-22T09:09:16.134Z,20.28
2023-05-22T09:12:21.641Z,22.52
2023-05-22T09:15:30.279Z,23.16
2023-05-22T09:18:33.202Z,20.30
2023-05-22T09:21:37.655Z,22.94
2023-05-22T09:24:45.106Z,21.57
2023-05-22T09:27:49.512Z,22.20
2023-05-22T09:30:54.000Z,21.40
2023-05-22T09:33:56.782Z,22.06
2023-05-22T09:37:03.461Z,20.56
2023-05-22T09:40:07.975Z,20.59
2023-05-22T09:43:11.595Z,20.94
2023-05-22T09:46:16.639Z,20.25
2023-05-22T09:49:19.449Z,22.17
2023-05-22T09:52:22.995Z,21.76
2023-05-22T09:55:27.400Z,23.20
2023-05-22T09:58:33.696Z,22.47
2023-05-22T10:01:39.051Z,21.26
2023-05-22T10:04:42.596Z,20.61
2023-05-22T10:07:53.467Z,21.20
2023-05-22T10:10:59.995Z,19.19
2023-05-22T10:14:05.170Z,19.08
2023-05-22T10:17:11.444Z,19.16
2023-05-22T10:20:15.347Z,18.49
2023-05-22T10:23:19.141Z,17.92
2023-05-22T10:26:23.219Z,17.91
2023-05-22T10:29:33.841Z,17.74
2023-05-22T10:32:44.104Z,19.38
2023-05-22T10:35:53.394Z,20.76
2023-05-22T10:38:55.867Z,20.86
2023-05-22T10:41:58.853Z,23.66
2023-05-22T10:45:01.950Z,26.46
2023-05-22T10:48:11.871Z,26.97
2023-05-22T10:51:20.439Z,27.39
2023-05-22T10:54:59.953Z,30.39
2023-05-22T10:58:13.260Z,33.67
2023-05-22T11:01:17.523Z,32.83
2023-05-22T11:04:25.820Z,31.72
2023-05-22T11:07:42.412Z,32.67
2023-05-22T11:10:56.300Z,29.30
2023-05-22T11:14:05.216Z,29.70
2023-05-22T11:17:08.024Z,31.67
2023-05-22T11:20:21.164Z,31.43
2023-05-22T11:23:25.686Z,26.88
2023-05-22T11:26:28.500Z,24.12
2023-05-22T11:29:33.597Z,26.58
2023-05-22T11:32:37.861Z,28.06
2023-05-22T11:35:41.370Z,29.60
2023-05-22T11:38:44.491Z,30.18
2023-05-22T11:41:50.002Z,31.23
2023-05-22T11:44:52.921Z,30.62
2023-05-22T11:47:55.907Z,25.78
2023-05-22T11:50:59.176Z,25.26
2023-05-22T11:54:01.750Z,26.78
2023-05-22T11:57:09.210Z,22.48
2023-05-22T12:00:12.271Z,22.19
2023-05-22T12:03:14.622Z,20.55
2023-05-22T12:06:18.286Z,18.72
2023-05-22T12:09:20.767Z,17.99
2023-05-22T12:12:23.935Z,22.11
2023-05-22T12:15:27.066Z,22.76
2023-05-22T12:18:37.568Z,20.96
2023-05-22T12:21:44.985Z,19.51
2023-05-22T12:24:52.603Z,18.19
2023-05-22T12:27:55.397Z,17.77
2023-05-22T12:30:58.049Z,17.42
2023-05-22T12:34:04.412Z,18.33
2023-05-22T12:37:30.032Z,18.34
2023-05-22T12:40:32.508Z,17.62
2023-05-22T12:43:35.732Z,19.50
2023-05-22T12:46:38.546Z,23.61
2023-05-22T12:49:41.377Z,24.71
2023-05-22T12:52:43.840Z,23.21
2023-05-22T12:55:46.707Z,23.38
2023-05-22T12:58:52.202Z,21.22
2023-05-22T13:02:02.349Z,20.72
2023-05-22T13:05:08.510Z,19.21
2023-05-22T13:08:11.522Z,18.89
2023-05-22T13:11:14.300Z,18.61
2023-05-22T13:14:17.577Z,20.27
2023-05-22T13:17:20.087Z,18.70
2023-05-22T13:20:25.449Z,19.27
2023-05-22T13:23:27.971Z,18.89
2023-05-22T13:26:30.811Z,18.36
2023-05-22T13:29:34.785Z,18.52
2023-05-22T13:32:37.858Z,19.22
2023-05-22T13:35:40.643Z,21.40
2023-05-22T13:38:43.596Z,21.90
2023-05-22T13:41:46.540Z,20.64
2023-05-22T13:44:49.793Z,18.98
2023-05-22T13:47:52.373Z,18.81
2023-05-22T13:51:03.410Z,19.05
2023-05-22T13:54:06.104Z,18.60
2023-05-22T13:57:09.010Z,18.40
2023-05-22T14:00:17.025Z,18.62
2023-05-22T14:03:20.451Z,19.09
2023-05-22T14:06:23.563Z,18.95
2023-05-22T14:09:26.558Z,19.95
2023-05-22T14:12:29.204Z,19.75
2023-05-22T14:15:32.477Z,19.34
2023-05-22T14:18:40.360Z,19.21
2023-05-22T14:21:43.002Z,18.95
2023-05-22T14:24:45.461Z,19.71
2023-05-22T14:27:48.139Z,20.24
2023-05-22T14:30:50.652Z,20.17
2023-05-22T14:33:53.335Z,20.93
2023-05-22T14:36:58.598Z,20.23
2023-05-22T14:40:04.335Z,20.35
2023-05-22T14:43:11.594Z,20.77
2023-05-22T14:46:14.791Z,21.41
2023-05-22T14:49:20.511Z,21.36
2023-05-22T14:52:26.416Z,21.99
2023-05-22T14:55:31.884Z,23.29
2023-05-22T14:58:34.798Z,23.74
2023-05-22T15:01:38.849Z,23.40
2023-05-22T15:04:42.104Z,24.03
2023-05-22T15:07:46.708Z,24.10
2023-05-22T15:10:50.881Z,25.51
2023-05-22T15:13:56.404Z,27.11
2023-05-22T15:17:00.001Z,27.77
2023-05-22T15:20:02.443Z,27.99
2023-05-22T15:23:05.755Z,30.59
2023-05-22T15:26:08.271Z,33.74
2023-05-22T15:29:11.045Z,35.24
2023-05-22T15:32:16.395Z,36.99
2023-05-22T15:35:19.537Z,37.85
2023-05-22T15:38:22.077Z,37.97
2023-05-22T15:41:25.995Z,38.33
2023-05-22T15:44:28.703Z,39.62
2023-05-22T15:47:31.718Z,40.41
2023-05-22T15:50:34.722Z,42.61
2023-05-22T15:53:41.150Z,41.91
2023-05-22T15:56:44.178Z,42.36
2023-05-22T15:59:50.805Z,41.80
2023-05-22T16:02:53.781Z,41.41
2023-05-22T16:05:56.734Z,41.75
2023-05-22T16:08:59.248Z,41.53
2023-05-22T16:12:02.996Z,41.99
2023-05-22T16:15:06.828Z,43.20
2023-05-22T16:18:12.422Z,44.76
2023-05-22T16:21:14.820Z,45.40
2023-05-22T16:24:17.615Z,45.97
2023-05-22T16:27:20.187Z,47.10
2023-05-22T16:30:23.424Z,46.95
2023-05-22T16:33:25.991Z,47.42
2023-05-22T16:36:29.050Z,48.23
2023-05-22T16:39:31.619Z,48.69
2023-05-22T16:42:35.413Z,48.72
2023-05-22T16:45:46.575Z,48.46
2023-05-22T16:48:52.177Z,48.93
2023-05-22T16:51:54.550Z,49.80
2023-05-22T16:54:57.227Z,50.38
2023-05-22T16:58:00.181Z,50.51
2023-05-22T17:01:03.019Z,50.40
2023-05-22T17:04:05.716Z,52.28
2023-05-22T17:07:08.539Z,53.36
2023-05-22T17:10:11.586Z,54.05
2023-05-22T17:13:20.914Z,54.89
2023-05-22T17:16:23.477Z,54.24
2023-05-22T17:19:26.667Z,54.51
2023-05-22T17:22:29.088Z,53.61
2023-05-22T17:25:32.046Z,53.69
2023-05-22T17:28:34.728Z,53.36
2023-05-22T17:31:39.290Z,53.54
2023-05-22T17:34:42.110Z,53.83
2023-05-22T17:37:44.850Z,53.27
2023-05-22T17:40:47.683Z,53.36
2023-05-22T17:44:00.171Z,53.78
2023-05-22T17:47:04.070Z,53.55
2023-05-22T17:50:07.380Z,52.93
2023-05-22T17:53:09.703Z,53.24
2023-05-22T17:56:12.394Z,52.75
2023-05-22T17:59:14.783Z,52.53
2023-05-22T18:02:17.978Z,52.32
2023-05-22T18:05:20.901Z,52.39
2023-05-22T18:08:23.409Z,52.58
2023-05-22T18:11:26.274Z,52.79
2023-05-22T18:14:28.916Z,52.82
2023-05-22T18:17:32.636Z,52.94
2023-05-22T18:20:38.276Z,53.19
2023-05-22T18:23:40.973Z,53.94
2023-05-22T18:26:46.500Z,54.16
2023-05-22T18:29:52.397Z,53.66
2023-05-22T18:32:54.775Z,54.61
2023-05-22T18:35:57.838Z,54.37
2023-05-22T18:39:00.272Z,54.43
2023-05-22T18:42:02.939Z,54.52
2023-05-22T18:45:07.203Z,54.56
2023-05-22T18:48:09.953Z,54.80
2023-05-22T18:51:13.420Z,54.88
2023-05-22T18:54:16.150Z,55.16
2023-05-22T18:57:18.622Z,55.24
2023-05-22T19:00:23.766Z,55.56
2023-05-22T19:03:26.944Z,55.75
2023-05-22T19:06:30.575Z,56.05
2023-05-22T19:09:32.948Z,56.59
2023-05-22T19:12:35.733Z,57.35
2023-05-22T19:15:38.557Z,58.09
2023-05-22T19:18:41.556Z,58.78
2023-05-22T19:21:43.917Z,59.68
2023-05-22T19:24:46.679Z,60.14
2023-05-22T19:27:49.269Z,60.55
2023-05-22T19:30:53.273Z,60.94
2023-05-22T19:33:55.985Z,61.63
2023-05-22T19:36:58.739Z,62.39
2023-05-22T19:40:01.282Z,63.23
2023-05-22T19:43:05.056Z,63.29
2023-05-22T19:46:09.009Z,63.46
2023-05-22T19:49:11.996Z,63.59
2023-05-22T19:52:14.377Z,64.70
2023-05-22T19:55:17.032Z,65.13
2023-05-22T19:58:19.905Z,67.35
2023-05-22T20:01:23.110Z,66.69
2023-05-22T20:04:26.106Z,67.10
2023-05-22T20:07:28.975Z,68.20
2023-05-22T20:10:33.327Z,69.75
2023-05-22T20:13:35.963Z,70.22
2023-05-22T20:16:41.890Z,71.31
2023-05-22T20:19:45.281Z,71.53
2023-05-22T20:22:48.951Z,72.44
2023-05-22T20:25:51.591Z,71.68
2023-05-22T20:28:54.254Z,72.16
2023-05-22T20:31:56.823Z,72.27
2023-05-22T20:35:01.944Z,72.85
2023-05-22T20:38:04.309Z,73.32
2023-05-22T20:41:09.177Z,74.45
2023-05-22T20:44:12.340Z,74.48
2023-05-22T20:47:15.304Z,75.92
2023-05-22T20:50:17.710Z,76.09
2023-05-22T20:53:20.391Z,76.75
2023-05-22T20:56:22.889Z,77.97
2023-05-22T20:59:25.806Z,78.31
2023-05-22T21:02:28.250Z,78.14
2023-05-22T21:05:31.006Z,78.03
2023-05-22T21:08:33.341Z,79.89
2023-05-22T21:11:36.089Z,78.39
2023-05-22T21:14:38.494Z,79.42
2023-05-22T21:17:41.226Z,80.16
2023-05-22T21:20:43.728Z,79.81
2023-05-22T21:23:48.035Z,79.71
2023-05-22T21:26:50.377Z,81.46
2023-05-22T21:29:53.902Z,80.21
2023-05-22T21:32:56.460Z,80.20
2023-05-22T21:35:59.516Z,80.46
2023-05-22T21:39:02.497Z,80.61
2023-05-22T21:42:06.008Z,80.85
2023-05-22T21:45:08.899Z,81.12
2023-05-22T21:48:11.699Z,81.44
2023-05-22T21:51:14.969Z,81.83
2023-05-22T21:54:17.620Z,82.33
2023-05-22T21:57:20.443Z,82.69
2023-05-22T22:00:23.118Z,82.53
2023-05-22T22:03:25.947Z,83.26
2023-05-22T22:06:31.353Z,84.75
2023-05-22T22:09:34.284Z,85.71
2023-05-22T22:12:36.798Z,85.64
2023-05-22T22:15:40.004Z,84.94
2023-05-22T22:18:43.874Z,85.09
2023-05-22T22:21:46.781Z,85.17
2023-05-22T22:24:49.228Z,85.15
2023-05-22T22:27:52.720Z,85.70
2023-05-22T22:30:55.337Z,85.57
2023-05-22T22:33:58.168Z,86.06
2023-05-22T22:37:01.632Z,86.14
2023-05-22T22:40:08.115Z,86.33
2023-05-22T22:43:10.514Z,86.85
2023-05-22T22:46:13.795Z,86.89
2023-05-22T22:49:16.194Z,87.22
2023-05-22T22:52:18.905Z,87.43
2023-05-22T22:55:21.575Z,87.59
2023-05-22T22:58:24.778Z,87.71
2023-05-22T23:01:27.245Z,87.83
2023-05-22T23:04:32.077Z,88.00
2023-05-22T23:07:34.792Z,88.16
2023-05-22T23:10:37.525Z,88.34
2023-05-22T23:13:41.310Z,88.82
2023-05-22T23:16:46.341Z,89.05
2023-05-22T23:19:48.762Z,89.06
2023-05-22T23:22:51.487Z,89.08
2023-05-22T23:25:53.873Z,89.10
2023-05-22T23:28:56.587Z,89.25
2023-05-22T23:31:59.252Z,89.30
2023-05-22T23:35:02.074Z,89.36
2023-05-22T23:38:06.958Z,89.53
2023-05-22T23:41:10.497Z,89.11
2023-05-22T23:44:12.958Z,89.09
2023-05-22T23:47:16.934Z,88.58
2023-05-22T23:50:19.621Z,88.40
2023-05-22T23:53:22.286Z,88.22
2023-05-22T23:56:24.707Z,87.74
2023-05-22T23:59:27.352Z,87.52
